sensor_id;sensor_type;location;lat;lon;timestamp;temperature;humidity
15259;DHT22;34462;51.368;12.364;2023-02-28T00:01:44;1.10;99.90
15259;DHT22;34462;51.368;12.364;2023-02-28T00:04:12;1.10;99.90
15259;DHT22;34462;51.368;12.364;2023-02-28T00:06:40;1.10;99.90
15259;DHT22;34462;51.368;12.364;2023-02-28T00:09:09;1.10;99.90
15259;DHT22;34462;51.368;12.364;2023-02-28T00:11:37;1.10;99.90
15259;DHT22;34462;51.368;12.364;2023-02-28T00:14:05;1.10;99.90
15259;DHT22;34462;51.368;12.364;2023-02-28T00:16:34;1.10;99.90
15259;DHT22;34462;51.368;12.364;2023-02-28T00:19:03;1.10;99.90
15259;DHT22;34462;51.368;12.364;2023-02-28T00:21:31;1.10;99.90
15259;DHT22;34462;51.368;12.364;2023-02-28T00:23:59;1.10;99.90
15259;DHT22;34462;51.368;12.364;2023-02-28T00:26:27;1.10;99.90
15259;DHT22;34462;51.368;12.364;2023-02-28T00:28:55;1.10;99.90
15259;DHT22;34462;51.368;12.364;2023-02-28T00:31:24;1.00;99.90
15259;DHT22;34462;51.368;12.364;2023-02-28T00:33:54;1.10;99.90
15259;DHT22;34462;51.368;12.364;2023-02-28T00:36:22;1.00;99.90
15259;DHT22;34462;51.368;12.364;2023-02-28T00:38:50;1.10;99.90
15259;DHT22;34462;51.368;12.364;2023-02-28T00:41:18;1.10;99.90
15259;DHT22;34462;51.368;12.364;2023-02-28T00:43:46;1.10;99.90
15259;DHT22;34462;51.368;12.364;2023-02-28T00:46:15;1.10;99.90
15259;DHT22;34462;51.368;12.364;2023-02-28T00:48:43;1.10;99.90
15259;DHT22;34462;51.368;12.364;2023-02-28T00:51:13;1.00;99.90
15259;DHT22;34462;51.368;12.364;2023-02-28T00:53:41;1.10;99.90
15259;DHT22;34462;51.368;12.364;2023-02-28T00:56:09;1.20;99.90
15259;DHT22;34462;51.368;12.364;2023-02-28T00:58:37;1.20;99.90
15259;DHT22;34462;51.368;12.364;2023-02-28T01:01:06;1.20;99.90
15259;DHT22;34462;51.368;12.364;2023-02-28T01:03:34;1.20;99.90
15259;DHT22;34462;51.368;12.364;2023-02-28T01:06:03;1.10;99.90
15259;DHT22;34462;51.368;12.364;2023-02-28T01:08:33;1.20;99.90
15259;DHT22;34462;51.368;12.364;2023-02-28T01:11:08;1.20;99.90
15259;DHT22;34462;51.368;12.364;2023-02-28T01:13:37;1.20;99.90
15259;DHT22;34462;51.368;12.364;2023-02-28T01:16:06;1.10;99.90
15259;DHT22;34462;51.368;12.364;2023-02-28T01:18:35;1.00;99.90
15259;DHT22;34462;51.368;12.364;2023-02-28T01:21:04;1.00;99.90
15259;DHT22;34462;51.368;12.364;2023-02-28T01:23:35;1.00;99.90
15259;DHT22;34462;51.368;12.364;2023-02-28T01:26:04;1.10;99.90
15259;DHT22;34462;51.368;12.364;2023-02-28T01:28:33;0.90;99.90
15259;DHT22;34462;51.368;12.364;2023-02-28T01:31:02;1.10;99.90
15259;DHT22;34462;51.368;12.364;2023-02-28T01:33:30;1.00;99.90
15259;DHT22;34462;51.368;12.364;2023-02-28T01:36:00;1.00;99.90
15259;DHT22;34462;51.368;12.364;2023-02-28T01:38:29;0.90;99.90
15259;DHT22;34462;51.368;12.364;2023-02-28T01:41:00;0.90;99.90
15259;DHT22;34462;51.368;12.364;2023-02-28T01:43:31;0.90;99.90
15259;DHT22;34462;51.368;12.364;2023-02-28T01:46:19;0.90;99.90
15259;DHT22;34462;51.368;12.364;2023-02-28T01:48:53;0.90;99.90
15259;DHT22;34462;51.368;12.364;2023-02-28T01:51:28;0.90;99.90
15259;DHT22;34462;51.368;12.364;2023-02-28T01:54:01;1.00;99.90
15259;DHT22;34462;51.368;12.364;2023-02-28T01:56:36;1.00;99.90
15259;DHT22;34462;51.368;12.364;2023-02-28T01:59:04;1.00;99.90
15259;DHT22;34462;51.368;12.364;2023-02-28T02:01:33;1.10;99.90
15259;DHT22;34462;51.368;12.364;2023-02-28T02:04:02;1.00;99.90
15259;DHT22;34462;51.368;12.364;2023-02-28T02:06:37;0.90;99.90
15259;DHT22;34462;51.368;12.364;2023-02-28T02:09:08;0.90;99.90
15259;DHT22;34462;51.368;12.364;2023-02-28T02:11:39;0.90;99.90
15259;DHT22;34462;51.368;12.364;2023-02-28T02:14:32;0.90;99.90
15259;DHT22;34462;51.368;12.364;2023-02-28T02:17:19;0.90;99.90
15259;DHT22;34462;51.368;12.364;2023-02-28T02:23:50;0.90;99.90
15259;DHT22;34462;51.368;12.364;2023-02-28T02:26:53;0.80;99.90
15259;DHT22;34462;51.368;12.364;2023-02-28T02:29:40;0.80;99.90
15259;DHT22;34462;51.368;12.364;2023-02-28T02:32:46;0.70;99.90
15259;DHT22;34462;51.368;12.364;2023-02-28T02:35:35;0.70;99.90
15259;DHT22;34462;51.368;12.364;2023-02-28T02:38:15;0.80;99.90
15259;DHT22;34462;51.368;12.364;2023-02-28T02:40:58;0.70;99.90
15259;DHT22;34462;51.368;12.364;2023-02-28T02:43:36;0.70;99.90
15259;DHT22;34462;51.368;12.364;2023-02-28T02:46:14;0.70;99.90
15259;DHT22;34462;51.368;12.364;2023-02-28T02:48:45;0.70;99.90
15259;DHT22;34462;51.368;12.364;2023-02-28T02:51:18;0.60;99.90
15259;DHT22;34462;51.368;12.364;2023-02-28T02:53:53;0.60;99.90
15259;DHT22;34462;51.368;12.364;2023-02-28T02:56:27;0.60;99.90
15259;DHT22;34462;51.368;12.364;2023-02-28T02:59:02;0.50;99.90
15259;DHT22;34462;51.368;12.364;2023-02-28T03:01:35;0.50;99.90
15259;DHT22;34462;51.368;12.364;2023-02-28T03:04:08;0.50;99.90
15259;DHT22;34462;51.368;12.364;2023-02-28T03:06:40;0.50;99.90
15259;DHT22;34462;51.368;12.364;2023-02-28T03:09:09;0.40;99.90
15259;DHT22;34462;51.368;12.364;2023-02-28T03:11:38;0.30;99.90
15259;DHT22;34462;51.368;12.364;2023-02-28T03:14:21;0.30;99.90
15259;DHT22;34462;51.368;12.364;2023-02-28T03:17:23;0.30;99.90
15259;DHT22;34462;51.368;12.364;2023-02-28T03:20:07;0.10;99.90
15259;DHT22;34462;51.368;12.364;2023-02-28T03:22:52;0.10;99.90
15259;DHT22;34462;51.368;12.364;2023-02-28T03:25:33;-0.10;99.90
15259;DHT22;34462;51.368;12.364;2023-02-28T03:28:11;-0.10;99.90
15259;DHT22;34462;51.368;12.364;2023-02-28T03:30:49;-0.10;99.90
15259;DHT22;34462;51.368;12.364;2023-02-28T03:33:24;-0.10;99.90
15259;DHT22;34462;51.368;12.364;2023-02-28T03:36:01;-0.10;99.90
15259;DHT22;34462;51.368;12.364;2023-02-28T03:38:40;-0.10;99.90
15259;DHT22;34462;51.368;12.364;2023-02-28T03:41:15;-0.20;99.90
15259;DHT22;34462;51.368;12.364;2023-02-28T03:43:52;-0.10;99.90
15259;DHT22;34462;51.368;12.364;2023-02-28T03:46:26;-0.20;99.90
15259;DHT22;34462;51.368;12.364;2023-02-28T03:49:03;-0.20;99.90
15259;DHT22;34462;51.368;12.364;2023-02-28T03:51:40;-0.20;99.90
15259;DHT22;34462;51.368;12.364;2023-02-28T03:54:15;-0.20;99.90
15259;DHT22;34462;51.368;12.364;2023-02-28T03:56:51;-0.30;99.90
15259;DHT22;34462;51.368;12.364;2023-02-28T03:59:26;-0.30;99.90
15259;DHT22;34462;51.368;12.364;2023-02-28T04:01:57;-0.30;99.90
15259;DHT22;34462;51.368;12.364;2023-02-28T04:04:26;-0.30;99.90
15259;DHT22;34462;51.368;12.364;2023-02-28T04:07:01;-0.20;99.90
15259;DHT22;34462;51.368;12.364;2023-02-28T04:09:32;-0.20;99.90
15259;DHT22;34462;51.368;12.364;2023-02-28T04:12:00;-0.20;99.90
15259;DHT22;34462;51.368;12.364;2023-02-28T04:14:28;-0.10;99.90
15259;DHT22;34462;51.368;12.364;2023-02-28T04:16:57;0.00;99.90
15259;DHT22;34462;51.368;12.364;2023-02-28T04:19:25;0.00;99.90
15259;DHT22;34462;51.368;12.364;2023-02-28T04:21:53;0.00;99.90
15259;DHT22;34462;51.368;12.364;2023-02-28T04:24:26;0.00;99.90
15259;DHT22;34462;51.368;12.364;2023-02-28T04:26:57;0.10;99.90
15259;DHT22;34462;51.368;12.364;2023-02-28T04:29:27;0.10;99.90
15259;DHT22;34462;51.368;12.364;2023-02-28T04:31:56;0.10;99.90
15259;DHT22;34462;51.368;12.364;2023-02-28T04:34:27;0.10;99.90
15259;DHT22;34462;51.368;12.364;2023-02-28T04:36:57;0.10;99.90
15259;DHT22;34462;51.368;12.364;2023-02-28T04:39:42;0.20;99.90
15259;DHT22;34462;51.368;12.364;2023-02-28T04:42:13;0.20;99.90
15259;DHT22;34462;51.368;12.364;2023-02-28T04:44:41;0.20;99.90
15259;DHT22;34462;51.368;12.364;2023-02-28T04:47:09;0.20;99.90
15259;DHT22;34462;51.368;12.364;2023-02-28T04:49:37;0.10;99.90
15259;DHT22;34462;51.368;12.364;2023-02-28T04:52:05;0.10;99.90
15259;DHT22;34462;51.368;12.364;2023-02-28T04:54:36;0.20;99.90
15259;DHT22;34462;51.368;12.364;2023-02-28T04:57:05;0.10;99.90
15259;DHT22;34462;51.368;12.364;2023-02-28T04:59:35;0.10;99.90
15259;DHT22;34462;51.368;12.364;2023-02-28T05:02:03;-0.10;99.90
15259;DHT22;34462;51.368;12.364;2023-02-28T05:04:33;-0.10;99.90
15259;DHT22;34462;51.368;12.364;2023-02-28T05:07:02;-0.10;99.90
15259;DHT22;34462;51.368;12.364;2023-02-28T05:09:30;-0.10;99.90
15259;DHT22;34462;51.368;12.364;2023-02-28T05:11:59;0.20;99.90
15259;DHT22;34462;51.368;12.364;2023-02-28T05:14:27;0.10;99.90
15259;DHT22;34462;51.368;12.364;2023-02-28T05:16:57;0.10;99.90
15259;DHT22;34462;51.368;12.364;2023-02-28T05:19:25;0.10;99.90
15259;DHT22;34462;51.368;12.364;2023-02-28T05:21:54;0.00;99.90
15259;DHT22;34462;51.368;12.364;2023-02-28T05:24:23;0.00;99.90
15259;DHT22;34462;51.368;12.364;2023-02-28T05:26:52;0.00;99.90
15259;DHT22;34462;51.368;12.364;2023-02-28T05:29:21;-0.10;99.90
15259;DHT22;34462;51.368;12.364;2023-02-28T05:31:50;-0.10;99.90
15259;DHT22;34462;51.368;12.364;2023-02-28T05:34:20;-0.10;99.90
15259;DHT22;34462;51.368;12.364;2023-02-28T05:36:48;-0.10;99.90
15259;DHT22;34462;51.368;12.364;2023-02-28T05:39:16;-0.20;99.90
15259;DHT22;34462;51.368;12.364;2023-02-28T05:41:44;-0.20;99.90
15259;DHT22;34462;51.368;12.364;2023-02-28T05:44:13;-0.30;99.90
15259;DHT22;34462;51.368;12.364;2023-02-28T05:46:41;-0.40;99.90
15259;DHT22;34462;51.368;12.364;2023-02-28T05:49:09;-0.40;99.90
15259;DHT22;34462;51.368;12.364;2023-02-28T05:51:39;-0.40;99.90
15259;DHT22;34462;51.368;12.364;2023-02-28T05:54:07;-0.50;99.90
15259;DHT22;34462;51.368;12.364;2023-02-28T05:56:38;-0.50;99.90
15259;DHT22;34462;51.368;12.364;2023-02-28T05:59:07;-0.40;99.90
15259;DHT22;34462;51.368;12.364;2023-02-28T06:01:36;-0.40;99.90
15259;DHT22;34462;51.368;12.364;2023-02-28T06:04:08;-0.50;99.90
15259;DHT22;34462;51.368;12.364;2023-02-28T06:06:56;-0.50;99.90
15259;DHT22;34462;51.368;12.364;2023-02-28T06:09:24;-0.40;99.90
15259;DHT22;34462;51.368;12.364;2023-02-28T06:11:53;-0.40;99.90
15259;DHT22;34462;51.368;12.364;2023-02-28T06:14:21;-0.40;99.90
15259;DHT22;34462;51.368;12.364;2023-02-28T06:16:49;-0.40;99.90
15259;DHT22;34462;51.368;12.364;2023-02-28T06:19:17;-0.40;99.90
15259;DHT22;34462;51.368;12.364;2023-02-28T06:21:50;-0.50;99.90
15259;DHT22;34462;51.368;12.364;2023-02-28T06:24:21;-0.40;99.90
15259;DHT22;34462;51.368;12.364;2023-02-28T06:26:51;-0.40;99.90
15259;DHT22;34462;51.368;12.364;2023-02-28T06:29:19;-0.40;99.90
15259;DHT22;34462;51.368;12.364;2023-02-28T06:31:47;-0.40;99.90
15259;DHT22;34462;51.368;12.364;2023-02-28T06:34:16;-0.40;99.90
15259;DHT22;34462;51.368;12.364;2023-02-28T06:36:44;-0.20;99.90
15259;DHT22;34462;51.368;12.364;2023-02-28T06:39:13;-0.30;99.90
15259;DHT22;34462;51.368;12.364;2023-02-28T06:41:42;-0.20;99.90
15259;DHT22;34462;51.368;12.364;2023-02-28T06:44:22;-0.20;99.90
15259;DHT22;34462;51.368;12.364;2023-02-28T06:46:51;-0.10;99.90
15259;DHT22;34462;51.368;12.364;2023-02-28T06:49:19;-0.10;99.90
15259;DHT22;34462;51.368;12.364;2023-02-28T06:51:47;0.00;99.90
15259;DHT22;34462;51.368;12.364;2023-02-28T06:54:16;0.00;99.90
15259;DHT22;34462;51.368;12.364;2023-02-28T06:56:46;0.10;99.90
15259;DHT22;34462;51.368;12.364;2023-02-28T06:59:14;0.10;99.90
15259;DHT22;34462;51.368;12.364;2023-02-28T07:01:42;0.10;99.90
15259;DHT22;34462;51.368;12.364;2023-02-28T07:04:11;0.20;99.90
15259;DHT22;34462;51.368;12.364;2023-02-28T07:06:40;0.30;99.90
15259;DHT22;34462;51.368;12.364;2023-02-28T07:09:08;0.40;99.90
15259;DHT22;34462;51.368;12.364;2023-02-28T07:11:37;0.50;99.90
15259;DHT22;34462;51.368;12.364;2023-02-28T07:14:07;0.60;99.90
15259;DHT22;34462;51.368;12.364;2023-02-28T07:16:35;0.60;99.90
15259;DHT22;34462;51.368;12.364;2023-02-28T07:19:04;0.70;99.90
15259;DHT22;34462;51.368;12.364;2023-02-28T07:21:32;0.90;99.90
15259;DHT22;34462;51.368;12.364;2023-02-28T07:24:01;0.90;99.90
15259;DHT22;34462;51.368;12.364;2023-02-28T07:26:29;1.00;99.90
15259;DHT22;34462;51.368;12.364;2023-02-28T07:28:57;1.10;99.90
15259;DHT22;34462;51.368;12.364;2023-02-28T07:31:26;1.20;99.90
15259;DHT22;34462;51.368;12.364;2023-02-28T07:33:55;1.20;99.90
15259;DHT22;34462;51.368;12.364;2023-02-28T07:36:24;1.30;99.90
15259;DHT22;34462;51.368;12.364;2023-02-28T07:38:52;1.40;99.90
15259;DHT22;34462;51.368;12.364;2023-02-28T07:41:21;1.40;99.90
15259;DHT22;34462;51.368;12.364;2023-02-28T07:43:53;1.50;99.90
15259;DHT22;34462;51.368;12.364;2023-02-28T07:46:22;1.60;99.90
15259;DHT22;34462;51.368;12.364;2023-02-28T07:48:51;1.60;99.90
15259;DHT22;34462;51.368;12.364;2023-02-28T07:51:22;1.60;99.90
15259;DHT22;34462;51.368;12.364;2023-02-28T07:53:50;1.70;99.90
15259;DHT22;34462;51.368;12.364;2023-02-28T07:56:18;1.70;99.90
15259;DHT22;34462;51.368;12.364;2023-02-28T07:58:47;1.90;99.90
15259;DHT22;34462;51.368;12.364;2023-02-28T08:01:15;2.10;99.90
15259;DHT22;34462;51.368;12.364;2023-02-28T08:03:44;2.20;99.90
15259;DHT22;34462;51.368;12.364;2023-02-28T08:06:18;2.40;99.90
15259;DHT22;34462;51.368;12.364;2023-02-28T08:08:48;2.40;99.90
15259;DHT22;34462;51.368;12.364;2023-02-28T08:11:17;2.50;99.90
15259;DHT22;34462;51.368;12.364;2023-02-28T08:13:45;2.60;99.90
15259;DHT22;34462;51.368;12.364;2023-02-28T08:16:14;2.80;99.90
15259;DHT22;34462;51.368;12.364;2023-02-28T08:18:48;2.80;99.90
15259;DHT22;34462;51.368;12.364;2023-02-28T08:21:20;2.80;99.90
15259;DHT22;34462;51.368;12.364;2023-02-28T08:23:50;2.80;99.90
15259;DHT22;34462;51.368;12.364;2023-02-28T08:26:19;2.90;99.90
15259;DHT22;34462;51.368;12.364;2023-02-28T08:28:48;2.90;99.90
15259;DHT22;34462;51.368;12.364;2023-02-28T08:31:17;3.00;99.90
15259;DHT22;34462;51.368;12.364;2023-02-28T08:33:46;3.00;99.90
15259;DHT22;34462;51.368;12.364;2023-02-28T08:36:15;3.10;99.90
15259;DHT22;34462;51.368;12.364;2023-02-28T08:38:45;3.30;99.90
15259;DHT22;34462;51.368;12.364;2023-02-28T08:41:13;3.40;99.90
15259;DHT22;34462;51.368;12.364;2023-02-28T08:43:41;3.40;99.90
15259;DHT22;34462;51.368;12.364;2023-02-28T08:46:12;3.50;99.90
15259;DHT22;34462;51.368;12.364;2023-02-28T08:48:41;3.60;99.90
15259;DHT22;34462;51.368;12.364;2023-02-28T08:51:12;3.60;99.90
15259;DHT22;34462;51.368;12.364;2023-02-28T08:53:42;3.60;99.90
15259;DHT22;34462;51.368;12.364;2023-02-28T08:56:14;3.60;99.90
15259;DHT22;34462;51.368;12.364;2023-02-28T08:58:44;3.40;99.90
15259;DHT22;34462;51.368;12.364;2023-02-28T09:01:15;3.40;99.90
15259;DHT22;34462;51.368;12.364;2023-02-28T09:03:46;3.40;99.90
15259;DHT22;34462;51.368;12.364;2023-02-28T09:06:17;3.30;99.90
15259;DHT22;34462;51.368;12.364;2023-02-28T09:08:48;3.40;99.90
15259;DHT22;34462;51.368;12.364;2023-02-28T09:11:17;3.50;99.90
15259;DHT22;34462;51.368;12.364;2023-02-28T09:13:46;3.50;99.90
15259;DHT22;34462;51.368;12.364;2023-02-28T09:16:15;3.60;99.90
15259;DHT22;34462;51.368;12.364;2023-02-28T09:18:44;3.60;99.90
15259;DHT22;34462;51.368;12.364;2023-02-28T09:21:15;3.60;99.90
15259;DHT22;34462;51.368;12.364;2023-02-28T09:23:45;3.80;99.90
15259;DHT22;34462;51.368;12.364;2023-02-28T09:26:18;3.90;99.90
15259;DHT22;34462;51.368;12.364;2023-02-28T09:28:48;3.80;99.90
15259;DHT22;34462;51.368;12.364;2023-02-28T09:31:18;3.90;99.90
15259;DHT22;34462;51.368;12.364;2023-02-28T09:33:48;4.10;99.90
15259;DHT22;34462;51.368;12.364;2023-02-28T09:36:17;4.30;99.90
15259;DHT22;34462;51.368;12.364;2023-02-28T09:38:50;4.20;99.90
15259;DHT22;34462;51.368;12.364;2023-02-28T09:41:21;4.20;99.90
15259;DHT22;34462;51.368;12.364;2023-02-28T09:43:53;4.20;99.90
15259;DHT22;34462;51.368;12.364;2023-02-28T09:46:29;4.10;99.90
15259;DHT22;34462;51.368;12.364;2023-02-28T09:49:04;4.00;99.90
15259;DHT22;34462;51.368;12.364;2023-02-28T09:51:43;3.90;99.90
15259;DHT22;34462;51.368;12.364;2023-02-28T09:54:20;3.80;99.90
15259;DHT22;34462;51.368;12.364;2023-02-28T09:56:51;3.70;99.90
15259;DHT22;34462;51.368;12.364;2023-02-28T09:59:38;3.70;99.90
15259;DHT22;34462;51.368;12.364;2023-02-28T10:02:21;3.70;99.90
15259;DHT22;34462;51.368;12.364;2023-02-28T10:05:11;3.90;99.90
15259;DHT22;34462;51.368;12.364;2023-02-28T10:07:53;4.00;99.90
15259;DHT22;34462;51.368;12.364;2023-02-28T10:10:38;4.20;99.90
15259;DHT22;34462;51.368;12.364;2023-02-28T10:13:17;4.40;99.90
15259;DHT22;34462;51.368;12.364;2023-02-28T10:15:54;4.70;99.90
15259;DHT22;34462;51.368;12.364;2023-02-28T10:18:28;4.60;99.90
15259;DHT22;34462;51.368;12.364;2023-02-28T10:21:03;4.60;99.90
15259;DHT22;34462;51.368;12.364;2023-02-28T10:23:34;4.60;99.90
15259;DHT22;34462;51.368;12.364;2023-02-28T10:26:11;4.80;99.90
15259;DHT22;34462;51.368;12.364;2023-02-28T10:28:43;4.90;99.90
15259;DHT22;34462;51.368;12.364;2023-02-28T10:31:15;5.00;99.90
15259;DHT22;34462;51.368;12.364;2023-02-28T10:33:47;4.90;99.90
15259;DHT22;34462;51.368;12.364;2023-02-28T10:36:17;4.80;99.90
15259;DHT22;34462;51.368;12.364;2023-02-28T10:38:48;4.70;99.90
15259;DHT22;34462;51.368;12.364;2023-02-28T10:41:27;4.70;99.90
15259;DHT22;34462;51.368;12.364;2023-02-28T10:44:17;4.70;99.90
15259;DHT22;34462;51.368;12.364;2023-02-28T10:46:48;4.70;99.90
15259;DHT22;34462;51.368;12.364;2023-02-28T10:49:21;4.80;99.90
15259;DHT22;34462;51.368;12.364;2023-02-28T10:51:53;5.00;99.90
15259;DHT22;34462;51.368;12.364;2023-02-28T10:54:28;5.00;99.90
15259;DHT22;34462;51.368;12.364;2023-02-28T10:57:19;4.90;99.90
15259;DHT22;34462;51.368;12.364;2023-02-28T10:59:51;4.90;99.90
15259;DHT22;34462;51.368;12.364;2023-02-28T11:02:33;5.00;99.90
15259;DHT22;34462;51.368;12.364;2023-02-28T11:05:22;5.00;99.90
15259;DHT22;34462;51.368;12.364;2023-02-28T11:07:52;5.10;99.90
15259;DHT22;34462;51.368;12.364;2023-02-28T11:10:26;5.10;99.90
15259;DHT22;34462;51.368;12.364;2023-02-28T11:13:01;5.10;99.90
15259;DHT22;34462;51.368;12.364;2023-02-28T11:15:31;5.20;99.90
15259;DHT22;34462;51.368;12.364;2023-02-28T11:18:17;5.20;99.90
15259;DHT22;34462;51.368;12.364;2023-02-28T11:20:51;5.30;99.90
15259;DHT22;34462;51.368;12.364;2023-02-28T11:23:23;5.20;99.90
15259;DHT22;34462;51.368;12.364;2023-02-28T11:25:57;5.20;99.90
15259;DHT22;34462;51.368;12.364;2023-02-28T11:28:30;5.30;99.90
15259;DHT22;34462;51.368;12.364;2023-02-28T11:31:03;5.20;99.90
15259;DHT22;34462;51.368;12.364;2023-02-28T11:33:41;5.20;99.90
15259;DHT22;34462;51.368;12.364;2023-02-28T11:36:14;5.10;99.90
15259;DHT22;34462;51.368;12.364;2023-02-28T11:38:47;5.10;99.90
15259;DHT22;34462;51.368;12.364;2023-02-28T11:41:27;5.10;99.90
15259;DHT22;34462;51.368;12.364;2023-02-28T11:44:18;5.20;99.90
15259;DHT22;34462;51.368;12.364;2023-02-28T11:46:58;5.30;99.90
15259;DHT22;34462;51.368;12.364;2023-02-28T11:49:35;5.30;99.90
15259;DHT22;34462;51.368;12.364;2023-02-28T11:52:20;5.30;99.90
15259;DHT22;34462;51.368;12.364;2023-02-28T11:55:02;5.40;99.90
15259;DHT22;34462;51.368;12.364;2023-02-28T11:57:59;5.50;99.90
15259;DHT22;34462;51.368;12.364;2023-02-28T12:01:08;5.50;99.90
15259;DHT22;34462;51.368;12.364;2023-02-28T12:03:51;5.40;99.90
15259;DHT22;34462;51.368;12.364;2023-02-28T12:06:31;5.50;99.90
15259;DHT22;34462;51.368;12.364;2023-02-28T12:09:20;5.50;99.90
15259;DHT22;34462;51.368;12.364;2023-02-28T12:12:08;5.80;99.90
15259;DHT22;34462;51.368;12.364;2023-02-28T12:18:19;6.80;99.90
15259;DHT22;34462;51.368;12.364;2023-02-28T12:21:07;6.80;99.90
15259;DHT22;34462;51.368;12.364;2023-02-28T12:24:02;6.70;99.90
15259;DHT22;34462;51.368;12.364;2023-02-28T12:26:43;6.30;99.90
15259;DHT22;34462;51.368;12.364;2023-02-28T12:29:16;5.80;99.90
15259;DHT22;34462;51.368;12.364;2023-02-28T12:31:51;5.50;99.90
15259;DHT22;34462;51.368;12.364;2023-02-28T12:34:28;5.60;99.90
15259;DHT22;34462;51.368;12.364;2023-02-28T12:37:04;5.60;99.90
15259;DHT22;34462;51.368;12.364;2023-02-28T12:39:41;5.40;99.90
15259;DHT22;34462;51.368;12.364;2023-02-28T12:42:22;5.50;99.90
15259;DHT22;34462;51.368;12.364;2023-02-28T12:44:59;5.60;99.90
15259;DHT22;34462;51.368;12.364;2023-02-28T12:47:29;5.60;99.90
15259;DHT22;34462;51.368;12.364;2023-02-28T12:50:03;5.60;99.90
15259;DHT22;34462;51.368;12.364;2023-02-28T12:52:40;5.60;99.90
15259;DHT22;34462;51.368;12.364;2023-02-28T12:55:19;5.80;99.90
15259;DHT22;34462;51.368;12.364;2023-02-28T12:58:01;6.00;99.90
15259;DHT22;34462;51.368;12.364;2023-02-28T13:00:38;6.20;99.90
15259;DHT22;34462;51.368;12.364;2023-02-28T13:06:42;6.00;99.90
15259;DHT22;34462;51.368;12.364;2023-02-28T13:09:23;6.00;99.90
15259;DHT22;34462;51.368;12.364;2023-02-28T13:11:53;6.00;99.90
15259;DHT22;34462;51.368;12.364;2023-02-28T13:14:26;6.00;99.90
15259;DHT22;34462;51.368;12.364;2023-02-28T13:17:02;6.00;99.90
15259;DHT22;34462;51.368;12.364;2023-02-28T13:19:40;5.90;99.90
15259;DHT22;34462;51.368;12.364;2023-02-28T13:22:36;5.90;99.90
15259;DHT22;34462;51.368;12.364;2023-02-28T13:38:34;5.40;99.90
15259;DHT22;34462;51.368;12.364;2023-02-28T13:44:13;5.40;99.90
15259;DHT22;34462;51.368;12.364;2023-02-28T13:47:24;5.50;99.90
15259;DHT22;34462;51.368;12.364;2023-02-28T13:50:24;5.50;99.90
15259;DHT22;34462;51.368;12.364;2023-02-28T13:53:42;5.60;99.90
15259;DHT22;34462;51.368;12.364;2023-02-28T13:56:41;5.70;99.90
15259;DHT22;34462;51.368;12.364;2023-02-28T13:59:25;5.70;99.90
15259;DHT22;34462;51.368;12.364;2023-02-28T14:02:10;5.60;99.90
15259;DHT22;34462;51.368;12.364;2023-02-28T14:05:05;5.60;99.90
15259;DHT22;34462;51.368;12.364;2023-02-28T14:07:48;5.60;99.90
15259;DHT22;34462;51.368;12.364;2023-02-28T14:10:27;5.60;99.90
15259;DHT22;34462;51.368;12.364;2023-02-28T14:13:02;5.60;99.90
15259;DHT22;34462;51.368;12.364;2023-02-28T14:15:43;5.50;99.90
15259;DHT22;34462;51.368;12.364;2023-02-28T14:18:21;5.50;99.90
15259;DHT22;34462;51.368;12.364;2023-02-28T14:20:57;5.40;99.90
15259;DHT22;34462;51.368;12.364;2023-02-28T14:24:02;5.40;99.90
15259;DHT22;34462;51.368;12.364;2023-02-28T14:26:58;5.30;99.90
15259;DHT22;34462;51.368;12.364;2023-02-28T14:30:32;5.20;99.90
15259;DHT22;34462;51.368;12.364;2023-02-28T14:33:40;5.10;99.90
15259;DHT22;34462;51.368;12.364;2023-02-28T14:36:18;5.10;99.90
15259;DHT22;34462;51.368;12.364;2023-02-28T14:38:52;5.10;99.90
15259;DHT22;34462;51.368;12.364;2023-02-28T14:41:24;5.00;99.90
15259;DHT22;34462;51.368;12.364;2023-02-28T14:44:00;4.90;99.90
15259;DHT22;34462;51.368;12.364;2023-02-28T14:46:35;4.90;99.90
15259;DHT22;34462;51.368;12.364;2023-02-28T14:49:11;4.90;99.90
15259;DHT22;34462;51.368;12.364;2023-02-28T14:51:43;4.90;99.90
15259;DHT22;34462;51.368;12.364;2023-02-28T14:54:15;4.90;99.90
15259;DHT22;34462;51.368;12.364;2023-02-28T14:56:50;4.90;99.90
15259;DHT22;34462;51.368;12.364;2023-02-28T14:59:29;4.90;99.90
15259;DHT22;34462;51.368;12.364;2023-02-28T15:02:19;4.90;99.90
15259;DHT22;34462;51.368;12.364;2023-02-28T15:04:56;4.80;99.90
15259;DHT22;34462;51.368;12.364;2023-02-28T15:07:26;4.70;99.90
15259;DHT22;34462;51.368;12.364;2023-02-28T15:10:13;4.60;99.90
15259;DHT22;34462;51.368;12.364;2023-02-28T15:12:51;4.50;99.90
15259;DHT22;34462;51.368;12.364;2023-02-28T15:15:27;4.50;99.90
15259;DHT22;34462;51.368;12.364;2023-02-28T15:18:31;4.50;99.90
15259;DHT22;34462;51.368;12.364;2023-02-28T15:21:12;4.50;99.90
15259;DHT22;34462;51.368;12.364;2023-02-28T15:23:48;4.50;99.90
15259;DHT22;34462;51.368;12.364;2023-02-28T15:26:21;4.50;99.90
15259;DHT22;34462;51.368;12.364;2023-02-28T15:28:58;4.50;99.90
15259;DHT22;34462;51.368;12.364;2023-02-28T15:31:32;4.50;99.90
15259;DHT22;34462;51.368;12.364;2023-02-28T15:34:26;4.40;99.90
15259;DHT22;34462;51.368;12.364;2023-02-28T15:37:38;4.30;99.90
15259;DHT22;34462;51.368;12.364;2023-02-28T15:40:15;4.30;99.90
15259;DHT22;34462;51.368;12.364;2023-02-28T15:43:00;4.30;99.90
15259;DHT22;34462;51.368;12.364;2023-02-28T15:45:34;4.20;99.90
15259;DHT22;34462;51.368;12.364;2023-02-28T15:48:19;4.10;99.90
15259;DHT22;34462;51.368;12.364;2023-02-28T15:50:52;4.00;99.90
15259;DHT22;34462;51.368;12.364;2023-02-28T15:53:24;4.10;99.90
15259;DHT22;34462;51.368;12.364;2023-02-28T15:55:58;4.00;99.90
15259;DHT22;34462;51.368;12.364;2023-02-28T15:58:28;4.00;99.90
15259;DHT22;34462;51.368;12.364;2023-02-28T16:01:17;3.90;99.90
15259;DHT22;34462;51.368;12.364;2023-02-28T16:03:51;3.80;99.90
15259;DHT22;34462;51.368;12.364;2023-02-28T16:06:43;3.70;99.90
15259;DHT22;34462;51.368;12.364;2023-02-28T16:09:14;3.80;99.90
15259;DHT22;34462;51.368;12.364;2023-02-28T16:11:45;3.70;99.90
15259;DHT22;34462;51.368;12.364;2023-02-28T16:14:19;3.70;99.90
15259;DHT22;34462;51.368;12.364;2023-02-28T16:16:51;3.60;99.90
15259;DHT22;34462;51.368;12.364;2023-02-28T16:19:23;3.60;99.90
15259;DHT22;34462;51.368;12.364;2023-02-28T16:21:51;3.60;99.90
15259;DHT22;34462;51.368;12.364;2023-02-28T16:24:19;3.50;99.90
15259;DHT22;34462;51.368;12.364;2023-02-28T16:26:48;3.40;99.90
15259;DHT22;34462;51.368;12.364;2023-02-28T16:29:23;3.40;99.90
15259;DHT22;34462;51.368;12.364;2023-02-28T16:31:53;3.40;99.90
15259;DHT22;34462;51.368;12.364;2023-02-28T16:34:24;3.30;99.90
15259;DHT22;34462;51.368;12.364;2023-02-28T16:36:52;3.30;99.90
15259;DHT22;34462;51.368;12.364;2023-02-28T16:39:20;3.20;99.90
15259;DHT22;34462;51.368;12.364;2023-02-28T16:41:50;3.10;99.90